createdAt,value
2017-01-24T00:00:54.988Z,0
2017-01-24T00:01:55.003Z,0
2017-01-24T00:02:55.018Z,0
2017-01-24T00:03:55.447Z,0
2017-01-24T00:04:55.045Z,0
2017-01-24T00:05:55.058Z,0
2017-01-24T00:07:09.988Z,0
2017-01-24T00:07:55.091Z,0
2017-01-24T00:09:10.017Z,0
2017-01-24T00:09:55.112Z,0
2017-01-24T00:10:55.148Z,0
2017-01-24T00:11:55.148Z,0
2017-01-24T00:12:55.158Z,0
2017-01-24T00:14:10.096Z,0
2017-01-24T00:14:55.188Z,0
2017-01-24T00:15:55.198Z,0
2017-01-24T00:16:55.215Z,0
2017-01-24T00:17:55.228Z,0
2017-01-24T00:18:55.243Z,0
2017-01-24T00:20:10.177Z,0
2017-01-24T00:20:55.270Z,0
2017-01-24T00:21:55.288Z,0
2017-01-24T00:23:10.217Z,0
2017-01-24T00:23:55.309Z,0
2017-01-24T00:24:55.326Z,0
2017-01-24T00:25:55.341Z,0
2017-01-24T00:27:55.375Z,0
2017-01-24T00:29:10.306Z,0
2017-01-24T00:29:55.396Z,0
2017-01-24T00:30:55.412Z,0
2017-01-24T00:31:55.432Z,0
2017-01-24T00:32:55.441Z,0
2017-01-24T00:34:10.374Z,0
2017-01-24T00:34:55.477Z,0
2017-01-24T00:36:10.402Z,0
2017-01-24T00:37:55.513Z,0
2017-01-24T00:38:55.529Z,0
2017-01-24T00:39:55.543Z,0
2017-01-24T00:40:55.557Z,0
2017-01-24T00:41:55.568Z,0
2017-01-24T00:42:55.587Z,0
2017-01-24T00:43:55.599Z,0
2017-01-24T00:44:55.614Z,0
2017-01-24T00:45:55.626Z,0
2017-01-24T00:46:55.654Z,0
2017-01-24T00:47:55.660Z,0
2017-01-24T00:48:55.667Z,0
2017-01-24T00:50:10.604Z,0
2017-01-24T00:51:55.714Z,0
2017-01-24T00:52:55.727Z,0
2017-01-24T00:54:10.662Z,0
2017-01-24T00:54:55.759Z,0
2017-01-24T00:55:55.773Z,0
2017-01-24T00:57:10.703Z,0
2017-01-24T00:57:55.799Z,0
2017-01-24T00:58:55.814Z,0
2017-01-24T00:59:56.215Z,0
2017-01-24T01:01:11.148Z,0
2017-01-24T01:01:55.859Z,0
2017-01-24T01:02:55.874Z,0
2017-01-24T01:03:55.986Z,0
2017-01-24T01:04:55.902Z,0
2017-01-24T01:06:10.830Z,0
2017-01-24T01:06:55.934Z,0
2017-01-24T01:07:55.940Z,0
2017-01-24T01:08:55.956Z,0
2017-01-24T01:09:55.974Z,0
2017-01-24T01:10:55.984Z,0
2017-01-24T01:11:56.007Z,0
2017-01-24T01:12:56.014Z,0
2017-01-24T01:13:56.062Z,0
2017-01-24T01:14:56.046Z,0
2017-01-24T01:15:56.060Z,0
2017-01-24T01:17:10.990Z,0
2017-01-24T01:17:56.087Z,0
2017-01-24T01:18:56.101Z,0
2017-01-24T01:19:56.117Z,0
2017-01-24T01:21:11.045Z,0
2017-01-24T01:21:56.147Z,0
2017-01-24T01:22:56.154Z,0
2017-01-24T01:23:56.174Z,0
2017-01-24T01:25:11.105Z,0
2017-01-24T01:26:11.144Z,0
2017-01-24T01:26:56.218Z,0
2017-01-24T01:28:11.146Z,0
2017-01-24T01:28:56.269Z,0
2017-01-24T01:29:56.254Z,0
2017-01-24T01:30:56.279Z,0
2017-01-24T01:31:56.286Z,0
2017-01-24T01:33:11.217Z,0
2017-01-24T01:33:56.346Z,0
2017-01-24T01:34:56.328Z,0
2017-01-24T01:35:56.352Z,0
2017-01-24T01:36:56.356Z,0
2017-01-24T01:38:11.295Z,0
2017-01-24T01:38:56.397Z,0
2017-01-24T01:39:56.408Z,0
2017-01-24T01:40:56.416Z,0
2017-01-24T01:41:56.430Z,0
2017-01-24T01:42:56.832Z,0
2017-01-24T01:43:56.456Z,0
2017-01-24T01:44:56.476Z,0
2017-01-24T01:45:56.489Z,0
2017-01-24T01:46:56.508Z,0
2017-01-24T01:47:56.520Z,0
2017-01-24T01:49:11.449Z,0
2017-01-24T01:49:56.547Z,0
2017-01-24T01:50:56.583Z,0
2017-01-24T01:51:56.604Z,0
2017-01-24T01:52:56.595Z,0
2017-01-24T01:54:11.520Z,0
2017-01-24T01:54:57.002Z,0
2017-01-24T01:56:11.552Z,0
2017-01-24T01:56:56.648Z,0
2017-01-24T01:57:56.662Z,0
2017-01-24T01:58:56.680Z,0
2017-01-24T01:59:56.696Z,0
2017-01-24T02:00:56.703Z,0
2017-01-24T02:01:56.743Z,0
2017-01-24T02:04:11.665Z,0
2017-01-24T02:04:56.770Z,0
2017-01-24T02:05:56.780Z,0
2017-01-24T02:06:56.792Z,0
2017-01-24T02:07:56.804Z,0
2017-01-24T02:08:56.822Z,0
2017-01-24T02:09:56.832Z,0
2017-01-24T02:10:56.850Z,0
2017-01-24T02:11:56.887Z,0
2017-01-24T02:12:56.878Z,0
2017-01-24T02:13:56.889Z,0
2017-01-24T02:14:56.910Z,0
2017-01-24T02:16:11.837Z,0
2017-01-24T02:17:11.849Z,0
2017-01-24T02:17:56.954Z,0
2017-01-24T02:18:56.965Z,0
2017-01-24T02:19:56.984Z,0
2017-01-24T02:20:56.989Z,0
2017-01-24T02:21:57.390Z,0
2017-01-24T02:22:57.022Z,0
2017-01-24T02:24:11.954Z,0
2017-01-24T02:24:57.050Z,0
2017-01-24T02:25:57.061Z,0
2017-01-24T02:26:57.078Z,0
2017-01-24T02:28:57.123Z,0
2017-01-24T02:29:57.118Z,0
2017-01-24T02:30:57.138Z,0
2017-01-24T02:32:12.066Z,0
2017-01-24T02:32:57.166Z,0
2017-01-24T02:33:57.177Z,0
2017-01-24T02:34:57.192Z,0
2017-01-24T02:36:12.128Z,0
2017-01-24T02:36:57.217Z,0
2017-01-24T02:37:57.235Z,0
2017-01-24T02:38:57.249Z,0
2017-01-24T02:39:57.266Z,0
2017-01-24T02:40:57.582Z,0
2017-01-24T02:41:57.294Z,0
2017-01-24T02:43:27.144Z,0
2017-01-24T02:44:12.239Z,0
2017-01-24T02:44:57.336Z,0
2017-01-24T02:45:57.348Z,0
2017-01-24T02:47:57.381Z,0
2017-01-24T02:48:57.393Z,0
2017-01-24T02:49:57.427Z,0
2017-01-24T02:50:57.422Z,0
2017-01-24T02:52:12.356Z,0
2017-01-24T02:52:57.455Z,0
2017-01-24T02:53:57.465Z,0
2017-01-24T02:54:57.482Z,0
2017-01-24T02:55:57.494Z,0
2017-01-24T02:56:57.508Z,0
2017-01-24T02:57:57.522Z,0
2017-01-24T02:58:57.569Z,0
2017-01-24T03:00:12.472Z,0
2017-01-24T03:00:57.568Z,0
2017-01-24T03:01:57.585Z,0
2017-01-24T03:03:12.517Z,0
2017-01-24T03:04:12.558Z,0
2017-01-24T03:04:57.625Z,0
2017-01-24T03:05:57.640Z,0
2017-01-24T03:06:57.657Z,0
2017-01-24T03:08:12.584Z,0
2017-01-24T03:08:57.685Z,0
2017-01-24T03:09:57.697Z,0
2017-01-24T03:10:57.745Z,0
2017-01-24T03:11:57.723Z,0
2017-01-24T03:12:57.737Z,0
2017-01-24T03:14:12.669Z,0
2017-01-24T03:15:12.689Z,0
2017-01-24T03:15:57.779Z,0
2017-01-24T03:17:28.015Z,0
2017-01-24T03:17:57.807Z,0
2017-01-24T03:19:12.739Z,0
2017-01-24T03:20:12.755Z,0
2017-01-24T03:21:12.769Z,0
2017-01-24T03:21:57.862Z,0
2017-01-24T03:22:57.921Z,0
2017-01-24T03:24:12.811Z,0
2017-01-24T03:25:57.925Z,0
2017-01-24T03:26:57.938Z,0
2017-01-24T03:27:58.337Z,0
2017-01-24T03:28:57.969Z,0
2017-01-24T03:29:57.979Z,0
2017-01-24T03:30:57.997Z,0
2017-01-24T03:32:12.927Z,0
2017-01-24T03:32:58.023Z,0
2017-01-24T03:33:58.039Z,0
2017-01-24T03:35:12.977Z,0
2017-01-24T03:36:12.984Z,0
2017-01-24T03:36:58.083Z,0
2017-01-24T03:38:13.013Z,0
2017-01-24T03:39:13.052Z,0
2017-01-24T03:39:58.126Z,0
2017-01-24T03:40:58.161Z,0
2017-01-24T03:41:58.156Z,0
2017-01-24T03:42:58.169Z,0
2017-01-24T03:44:13.102Z,0
2017-01-24T03:44:58.199Z,0
2017-01-24T03:45:58.212Z,0
2017-01-24T03:46:58.231Z,0
2017-01-24T03:47:58.240Z,0
2017-01-24T03:49:13.176Z,0
2017-01-24T03:49:58.281Z,0
2017-01-24T03:52:13.217Z,0
2017-01-24T03:53:58.328Z,0
2017-01-24T03:54:58.346Z,0
2017-01-24T03:55:58.354Z,0
2017-01-24T03:56:58.373Z,0
2017-01-24T03:58:58.422Z,0
2017-01-24T03:59:58.414Z,0
2017-01-24T04:00:58.430Z,0
2017-01-24T04:01:58.466Z,0
2017-01-24T04:02:58.459Z,0
2017-01-24T04:04:13.392Z,0
2017-01-24T04:04:58.487Z,0
2017-01-24T04:05:58.498Z,0
2017-01-24T04:06:58.520Z,0
2017-01-24T04:08:13.446Z,0
2017-01-24T04:08:58.545Z,0
2017-01-24T04:09:58.556Z,0
2017-01-24T04:11:13.490Z,0
2017-01-24T04:11:58.589Z,0
2017-01-24T04:12:58.601Z,0
2017-01-24T04:13:58.618Z,0
2017-01-24T04:14:58.632Z,0
2017-01-24T04:15:58.645Z,0
2017-01-24T04:16:58.659Z,0
2017-01-24T04:17:58.673Z,0
2017-01-24T04:19:13.603Z,0
2017-01-24T04:19:58.702Z,0
2017-01-24T04:21:13.637Z,0
2017-01-24T04:22:13.650Z,0
2017-01-24T04:23:13.662Z,0
2017-01-24T04:24:58.778Z,0
2017-01-24T04:25:58.787Z,0
2017-01-24T04:27:13.719Z,0
2017-01-24T04:27:58.817Z,0
2017-01-24T04:28:58.830Z,0
2017-01-24T04:29:58.848Z,0
2017-01-24T04:30:58.866Z,0
2017-01-24T04:32:13.800Z,0
2017-01-24T04:33:13.809Z,0
2017-01-24T04:34:13.820Z,0
2017-01-24T04:35:13.835Z,0
2017-01-24T04:35:58.933Z,0
2017-01-24T04:37:28.782Z,0
2017-01-24T04:37:58.964Z,0
2017-01-24T04:39:13.896Z,0
2017-01-24T04:40:13.907Z,0
2017-01-24T04:40:59.008Z,0
2017-01-24T04:41:59.017Z,0
2017-01-24T04:43:13.951Z,0
2017-01-24T04:43:59.044Z,0
2017-01-24T04:45:59.077Z,0
2017-01-24T04:46:59.089Z,0
2017-01-24T04:47:59.495Z,0
2017-01-24T04:48:59.120Z,0
2017-01-24T04:49:59.132Z,0
2017-01-24T04:50:59.245Z,0
2017-01-24T04:51:59.176Z,0
2017-01-24T04:52:59.177Z,0
2017-01-24T04:53:59.191Z,0
2017-01-24T04:54:59.205Z,0
2017-01-24T04:56:14.137Z,0
2017-01-24T04:56:59.237Z,0
2017-01-24T04:57:59.257Z,0
2017-01-24T04:59:14.181Z,0
2017-01-24T05:00:59.292Z,0
2017-01-24T05:01:59.314Z,0
2017-01-24T05:02:59.321Z,0
2017-01-24T05:03:59.339Z,0
2017-01-24T05:04:59.349Z,0
2017-01-24T05:05:59.366Z,0
2017-01-24T05:06:59.388Z,0
2017-01-24T05:07:59.393Z,0
2017-01-24T05:08:59.408Z,0
2017-01-24T05:10:29.257Z,0
2017-01-24T05:10:59.439Z,0
2017-01-24T05:11:59.451Z,0
2017-01-24T05:12:59.466Z,0
2017-01-24T05:14:14.400Z,0
2017-01-24T05:14:59.524Z,0
2017-01-24T05:15:59.513Z,0
2017-01-24T05:16:59.525Z,0
2017-01-24T05:17:59.543Z,0
2017-01-24T05:19:59.566Z,0
2017-01-24T05:21:14.501Z,0
2017-01-24T05:21:59.597Z,0
2017-01-24T05:24:29.462Z,0
2017-01-24T05:24:59.639Z,0
2017-01-24T05:26:14.571Z,0
2017-01-24T05:26:59.676Z,0
2017-01-24T05:27:59.687Z,0
2017-01-24T05:28:59.700Z,0
2017-01-24T05:30:59.728Z,0
2017-01-24T05:31:59.746Z,0
2017-01-24T05:32:59.757Z,0
2017-01-24T05:33:59.770Z,0
2017-01-24T05:34:59.786Z,0
2017-01-24T05:35:59.801Z,0
2017-01-24T05:37:14.739Z,0
2017-01-24T05:37:59.826Z,0
2017-01-24T05:39:14.761Z,0
2017-01-24T05:39:59.858Z,0
2017-01-24T05:40:59.873Z,0
2017-01-24T05:41:59.889Z,0
2017-01-24T05:42:59.905Z,0
2017-01-24T05:43:59.937Z,0
2017-01-24T05:44:59.935Z,0
2017-01-24T05:47:59.973Z,0
2017-01-24T05:48:59.990Z,0
2017-01-24T05:50:14.928Z,0
2017-01-24T05:51:00.016Z,0
2017-01-24T05:52:00.031Z,0
2017-01-24T05:53:00.048Z,0
2017-01-24T05:54:00.065Z,0
2017-01-24T05:55:00.080Z,0
2017-01-24T05:57:29.941Z,0
2017-01-24T05:58:00.121Z,0
2017-01-24T05:59:00.138Z,0
2017-01-24T06:00:15.067Z,0
2017-01-24T06:02:15.096Z,0
2017-01-24T06:03:00.193Z,0
2017-01-24T06:04:00.212Z,0
2017-01-24T06:05:00.223Z,0
2017-01-24T06:06:00.235Z,0
2017-01-24T06:07:15.171Z,0
2017-01-24T06:08:00.268Z,0
2017-01-24T06:09:15.205Z,0
2017-01-24T06:10:00.295Z,0
2017-01-24T06:11:00.309Z,0
2017-01-24T06:12:00.326Z,0
2017-01-24T06:13:15.258Z,0
2017-01-24T06:14:00.356Z,0
2017-01-24T06:15:00.403Z,0
2017-01-24T06:16:00.390Z,0
2017-01-24T06:18:15.329Z,0
2017-01-24T06:19:00.424Z,0
2017-01-24T06:20:15.370Z,0
2017-01-24T06:21:00.456Z,0
2017-01-24T06:22:00.472Z,0
2017-01-24T06:23:00.870Z,0
2017-01-24T06:24:00.502Z,0
2017-01-24T06:25:15.432Z,0
2017-01-24T06:26:00.531Z,0
2017-01-24T06:27:00.545Z,0
2017-01-24T06:28:00.556Z,0
2017-01-24T06:29:00.572Z,0
2017-01-24T06:30:00.586Z,0
2017-01-24T06:31:00.606Z,0
2017-01-24T06:32:15.532Z,0
2017-01-24T06:33:15.547Z,0
2017-01-24T06:34:15.562Z,0
2017-01-24T06:35:00.659Z,0
2017-01-24T06:36:00.674Z,0
2017-01-24T06:37:00.711Z,0
2017-01-24T06:38:00.706Z,0
2017-01-24T06:39:00.721Z,0
2017-01-24T06:40:15.652Z,0
2017-01-24T06:41:00.747Z,0
2017-01-24T06:42:15.678Z,0
2017-01-24T06:43:00.777Z,0
2017-01-24T06:44:00.789Z,0
2017-01-24T06:45:00.803Z,0
2017-01-24T06:46:00.831Z,0
2017-01-24T06:48:00.850Z,0
2017-01-24T06:49:15.784Z,0
2017-01-24T06:51:00.920Z,0
2017-01-24T06:52:00.908Z,0
2017-01-24T06:53:00.919Z,0
2017-01-24T06:54:00.938Z,0
2017-01-24T06:55:15.871Z,0
2017-01-24T06:56:00.965Z,0
2017-01-24T06:57:00.982Z,0
2017-01-24T06:58:00.993Z,0
2017-01-24T06:59:01.038Z,0
2017-01-24T07:00:01.028Z,0
2017-01-24T07:01:01.080Z,0
2017-01-24T07:02:15.971Z,0
2017-01-24T07:03:01.073Z,0
2017-01-24T07:04:01.097Z,0
2017-01-24T07:05:01.099Z,0
2017-01-24T07:06:01.113Z,0
2017-01-24T07:07:01.124Z,0
2017-01-24T07:08:01.144Z,0
2017-01-24T07:09:16.074Z,0
2017-01-24T07:10:01.172Z,0
2017-01-24T07:11:01.183Z,0
2017-01-24T07:12:01.228Z,0
2017-01-24T07:13:16.129Z,0
2017-01-24T07:14:01.229Z,0
2017-01-24T07:15:01.243Z,0
2017-01-24T07:16:01.256Z,0
2017-01-24T07:17:16.189Z,0
2017-01-24T07:18:16.207Z,0
2017-01-24T07:19:01.301Z,0
2017-01-24T07:20:01.363Z,0
2017-01-24T07:21:16.248Z,0
2017-01-24T07:22:01.342Z,0
2017-01-24T07:23:01.359Z,0
2017-01-24T07:25:01.395Z,0
2017-01-24T07:26:01.402Z,0
2017-01-24T07:27:01.809Z,0
2017-01-24T07:28:16.346Z,0
2017-01-24T07:29:16.361Z,0
2017-01-24T07:30:01.491Z,0
2017-01-24T07:31:01.475Z,0
2017-01-24T07:32:16.415Z,0
2017-01-24T07:33:01.503Z,0
2017-01-24T07:34:01.520Z,5
2017-01-24T07:35:01.536Z,5
2017-01-24T07:36:01.548Z,5
2017-01-24T07:37:16.478Z,5
2017-01-24T07:38:01.575Z,5
2017-01-24T07:39:01.589Z,5
2017-01-24T07:40:01.602Z,5
2017-01-24T07:41:01.620Z,5
2017-01-24T07:42:01.657Z,5
2017-01-24T07:43:01.648Z,5
2017-01-24T07:45:01.678Z,5
2017-01-24T07:46:01.693Z,5
2017-01-24T07:47:01.709Z,5
2017-01-24T07:48:01.724Z,5
2017-01-24T07:49:01.736Z,5
2017-01-24T07:51:01.766Z,5
2017-01-24T07:52:01.778Z,5
2017-01-24T07:53:16.707Z,5
2017-01-24T07:55:01.820Z,5
2017-01-24T07:56:01.838Z,5
2017-01-24T07:57:01.856Z,5
2017-01-24T07:58:01.891Z,5
2017-01-24T07:59:01.881Z,5
2017-01-24T08:00:16.814Z,5
2017-01-24T08:01:01.911Z,5
2017-01-24T08:02:01.930Z,5
2017-01-24T08:03:16.859Z,10
2017-01-24T08:04:16.873Z,10
2017-01-24T08:05:16.891Z,5
2017-01-24T08:06:01.992Z,5
2017-01-24T08:07:02.001Z,5
2017-01-24T08:09:16.945Z,5
2017-01-24T08:10:02.041Z,5
2017-01-24T08:11:02.057Z,10
2017-01-24T08:12:02.072Z,10
2017-01-24T08:13:02.085Z,10
2017-01-24T08:14:02.101Z,10
2017-01-24T08:15:02.115Z,10
2017-01-24T08:16:02.134Z,10
2017-01-24T08:17:02.148Z,10
2017-01-24T08:18:02.164Z,10
2017-01-24T08:20:02.191Z,10
2017-01-24T08:21:17.122Z,10
2017-01-24T08:22:02.220Z,10
2017-01-24T08:23:02.240Z,10
2017-01-24T08:24:17.168Z,10
2017-01-24T08:25:02.268Z,10
2017-01-24T08:26:02.306Z,10
2017-01-24T08:27:02.299Z,15
2017-01-24T08:28:17.228Z,15
2017-01-24T08:29:17.243Z,15
2017-01-24T08:30:02.340Z,15
2017-01-24T08:31:02.350Z,15
2017-01-24T08:32:02.366Z,15
2017-01-24T08:33:17.304Z,15
2017-01-24T08:34:02.399Z,15
2017-01-24T08:35:02.423Z,15
2017-01-24T08:36:02.427Z,15
2017-01-24T08:37:02.450Z,15
2017-01-24T08:38:02.455Z,15
2017-01-24T08:39:02.495Z,15
2017-01-24T08:40:02.485Z,15
2017-01-24T08:41:02.502Z,15
2017-01-24T08:42:02.519Z,15
2017-01-24T08:43:02.531Z,15
2017-01-24T08:44:02.572Z,15
2017-01-24T08:45:02.595Z,15
2017-01-24T08:46:02.578Z,15
2017-01-24T08:47:17.505Z,15
2017-01-24T08:48:02.608Z,15
2017-01-24T08:49:02.652Z,15
2017-01-24T08:50:02.633Z,15
2017-01-24T08:52:17.582Z,15
2017-01-24T08:53:02.679Z,20
2017-01-24T08:55:02.706Z,20
2017-01-24T08:56:17.644Z,20
2017-01-24T08:57:02.747Z,20
2017-01-24T08:58:02.757Z,20
2017-01-24T08:59:02.768Z,20
2017-01-24T09:00:02.788Z,20
2017-01-24T09:01:02.801Z,20
2017-01-24T09:02:17.731Z,20
2017-01-24T09:03:17.748Z,20
2017-01-24T09:04:02.845Z,20
2017-01-24T09:05:17.791Z,20
2017-01-24T09:06:02.873Z,20
2017-01-24T09:07:02.890Z,20
2017-01-24T09:08:02.906Z,20
2017-01-24T09:09:02.922Z,20
2017-01-24T09:10:02.931Z,20
2017-01-24T09:11:02.949Z,25
2017-01-24T09:12:17.881Z,25
2017-01-24T09:13:02.982Z,25
2017-01-24T09:14:02.991Z,25
2017-01-24T09:15:03.010Z,25
2017-01-24T09:16:03.024Z,25
2017-01-24T09:17:17.960Z,25
2017-01-24T09:18:03.068Z,25
2017-01-24T09:19:03.066Z,25
2017-01-24T09:20:03.093Z,30
2017-01-24T09:21:03.097Z,30
2017-01-24T09:23:18.045Z,25
2017-01-24T09:24:03.201Z,25
2017-01-24T09:25:03.164Z,25
2017-01-24T09:26:03.175Z,25
2017-01-24T09:27:03.190Z,25
2017-01-24T09:29:03.267Z,25
2017-01-24T09:31:18.168Z,25
2017-01-24T09:32:03.261Z,25
2017-01-24T09:33:03.279Z,25
2017-01-24T09:34:03.292Z,25
2017-01-24T09:35:03.314Z,25
2017-01-24T09:36:18.239Z,30
2017-01-24T09:37:04.438Z,30
2017-01-24T09:38:03.355Z,30
2017-01-24T09:39:03.369Z,35
2017-01-24T09:40:18.398Z,35
2017-01-24T09:41:03.399Z,35
2017-01-24T09:42:03.413Z,35
2017-01-24T09:43:18.353Z,35
2017-01-24T09:44:18.359Z,35
2017-01-24T09:45:03.459Z,35
2017-01-24T09:46:03.472Z,35
2017-01-24T09:47:03.489Z,35
2017-01-24T09:48:03.542Z,35
2017-01-24T09:49:03.528Z,35
2017-01-24T09:50:03.532Z,35
2017-01-24T09:51:18.466Z,35
2017-01-24T09:52:03.565Z,35
2017-01-24T09:53:03.581Z,35
2017-01-24T09:54:03.598Z,35
2017-01-24T09:55:03.607Z,35
2017-01-24T09:57:03.643Z,35
2017-01-24T09:58:03.665Z,35
2017-01-24T09:59:18.588Z,40
2017-01-24T10:00:03.690Z,40
2017-01-24T10:01:03.702Z,40
2017-01-24T10:02:03.741Z,40
2017-01-24T10:03:03.732Z,45
2017-01-24T10:04:03.750Z,45
2017-01-24T10:05:18.682Z,45
2017-01-24T10:06:18.700Z,45
2017-01-24T10:07:03.793Z,45
2017-01-24T10:08:03.812Z,45
2017-01-24T10:09:03.825Z,40
2017-01-24T10:10:18.762Z,45
2017-01-24T10:11:03.863Z,45
2017-01-24T10:13:03.890Z,45
2017-01-24T10:15:03.926Z,45
2017-01-24T10:16:03.933Z,45
2017-01-24T10:17:18.871Z,45
2017-01-24T10:18:03.964Z,40
2017-01-24T10:19:04.011Z,40
2017-01-24T10:20:03.996Z,40
2017-01-24T10:21:04.008Z,40
2017-01-24T10:22:18.993Z,45
2017-01-24T10:23:04.039Z,45
2017-01-24T10:24:04.054Z,45
2017-01-24T10:25:04.070Z,50
2017-01-24T10:26:04.087Z,50
2017-01-24T10:27:04.109Z,50
2017-01-24T10:28:04.115Z,50
2017-01-24T10:29:04.133Z,50
2017-01-24T10:30:04.149Z,50
2017-01-24T10:31:19.089Z,45
2017-01-24T10:32:04.189Z,45
2017-01-24T10:33:04.194Z,45
2017-01-24T10:34:04.216Z,45
2017-01-24T10:35:04.232Z,45
2017-01-24T10:36:04.241Z,45
2017-01-24T10:37:04.257Z,45
2017-01-24T10:38:04.284Z,45
2017-01-24T10:39:04.298Z,45
2017-01-24T10:41:04.313Z,40
2017-01-24T10:42:04.329Z,40
2017-01-24T10:43:04.345Z,40
2017-01-24T10:45:04.383Z,40
2017-01-24T10:46:04.397Z,40
2017-01-24T10:47:19.329Z,40
2017-01-24T10:48:04.425Z,35
2017-01-24T10:49:04.440Z,35
2017-01-24T10:50:04.454Z,35
2017-01-24T10:51:04.476Z,35
2017-01-24T10:52:04.484Z,35
2017-01-24T10:53:19.422Z,30
2017-01-24T10:54:19.433Z,30
2017-01-24T10:55:04.533Z,30
2017-01-24T10:56:19.490Z,30
2017-01-24T10:57:04.560Z,30
2017-01-24T10:58:04.579Z,30
2017-01-24T10:59:04.600Z,30
2017-01-24T11:01:05.019Z,35
2017-01-24T11:02:04.642Z,35
2017-01-24T11:03:19.576Z,35
2017-01-24T11:04:04.668Z,35
2017-01-24T11:05:04.689Z,35
2017-01-24T11:06:04.702Z,40
2017-01-24T11:07:04.723Z,40
2017-01-24T11:08:04.761Z,40
2017-01-24T11:09:04.780Z,40
2017-01-24T11:10:19.780Z,40
2017-01-24T11:11:04.779Z,40
2017-01-24T11:12:05.046Z,40
2017-01-24T11:13:19.729Z,35
2017-01-24T11:14:04.825Z,35
2017-01-24T11:15:19.762Z,35
2017-01-24T11:17:19.813Z,35
2017-01-24T11:18:04.887Z,35
2017-01-24T11:19:19.821Z,35
2017-01-24T11:20:04.922Z,35
2017-01-24T11:21:04.935Z,35
2017-01-24T11:22:04.956Z,40
2017-01-24T11:23:04.964Z,35
2017-01-24T11:24:04.980Z,35
2017-01-24T11:25:19.915Z,40
2017-01-24T11:26:05.008Z,40
2017-01-24T11:27:05.028Z,40
2017-01-24T11:28:05.047Z,40
2017-01-24T11:29:19.977Z,40
2017-01-24T11:30:05.085Z,35
2017-01-24T11:31:20.005Z,35
2017-01-24T11:32:05.491Z,35
2017-01-24T11:34:20.060Z,30
2017-01-24T11:35:05.155Z,30
2017-01-24T11:36:20.088Z,30
2017-01-24T11:37:05.189Z,30
2017-01-24T11:38:20.117Z,30
2017-01-24T11:39:20.133Z,35
2017-01-24T11:40:05.231Z,35
2017-01-24T11:41:05.246Z,35
2017-01-24T11:42:20.180Z,35
2017-01-24T11:43:05.274Z,40
2017-01-24T11:44:05.291Z,40
2017-01-24T11:45:05.307Z,40
2017-01-24T11:46:05.322Z,40
2017-01-24T11:47:20.258Z,40
2017-01-24T11:48:05.357Z,40
2017-01-24T11:49:05.375Z,40
2017-01-24T11:50:05.391Z,40
2017-01-24T11:51:05.649Z,40
2017-01-24T11:52:05.416Z,40
2017-01-24T11:53:05.432Z,40
2017-01-24T11:54:05.443Z,40
2017-01-24T11:55:05.462Z,40
2017-01-24T11:56:20.394Z,40
2017-01-24T11:57:05.493Z,40
2017-01-24T11:58:05.510Z,45
2017-01-24T11:59:05.523Z,50
2017-01-24T12:00:35.373Z,45
2017-01-24T12:01:05.555Z,45
2017-01-24T12:03:05.585Z,40
2017-01-24T12:04:05.599Z,40
2017-01-24T12:05:05.616Z,40
2017-01-24T12:06:20.545Z,35
2017-01-24T12:07:05.651Z,30
2017-01-24T12:08:05.666Z,30
2017-01-24T12:09:05.680Z,30
2017-01-24T12:10:05.694Z,30
2017-01-24T12:11:05.709Z,30
2017-01-24T12:12:05.756Z,30
2017-01-24T12:13:05.742Z,30
2017-01-24T12:14:20.673Z,30
2017-01-24T12:15:20.709Z,30
2017-01-24T12:16:05.828Z,30
2017-01-24T12:17:20.718Z,25
2017-01-24T12:18:20.732Z,25
2017-01-24T12:20:05.850Z,30
2017-01-24T12:22:20.795Z,25
2017-01-24T12:23:05.899Z,25
2017-01-24T12:24:05.911Z,25
2017-01-24T12:25:05.926Z,25
2017-01-24T12:26:05.938Z,30
2017-01-24T12:27:05.957Z,30
2017-01-24T12:28:05.975Z,30
2017-01-24T12:29:05.986Z,30
2017-01-24T12:30:06.002Z,30
2017-01-24T12:31:06.022Z,30
2017-01-24T12:32:20.954Z,30
2017-01-24T12:33:20.965Z,25
2017-01-24T12:34:06.066Z,25
2017-01-24T12:35:06.084Z,25
2017-01-24T12:36:06.099Z,25
2017-01-24T12:37:06.109Z,30
2017-01-24T12:39:06.171Z,30
2017-01-24T12:40:06.160Z,30
2017-01-24T12:41:06.170Z,30
2017-01-24T12:42:06.185Z,25
2017-01-24T12:43:06.204Z,25
2017-01-24T12:44:36.055Z,25
2017-01-24T12:45:21.148Z,25
2017-01-24T12:46:06.249Z,25
2017-01-24T12:47:06.264Z,25
2017-01-24T12:49:21.213Z,25
2017-01-24T12:50:06.311Z,25
2017-01-24T12:51:06.326Z,25
2017-01-24T12:52:06.759Z,20
2017-01-24T12:54:21.288Z,20
2017-01-24T12:55:06.388Z,20
2017-01-24T12:56:06.410Z,25
2017-01-24T12:57:06.419Z,25
2017-01-24T12:58:06.433Z,20
2017-01-24T12:59:06.450Z,20
2017-01-24T13:00:06.468Z,20
2017-01-24T13:01:06.484Z,20
2017-01-24T13:02:06.500Z,20
2017-01-24T13:03:06.511Z,20
2017-01-24T13:04:06.525Z,20
2017-01-24T13:05:06.591Z,20
2017-01-24T13:06:06.566Z,20
2017-01-24T13:07:06.573Z,20
2017-01-24T13:08:06.592Z,20
2017-01-24T13:09:21.516Z,20
2017-01-24T13:10:06.617Z,20
2017-01-24T13:11:06.635Z,20
2017-01-24T13:12:06.651Z,20
2017-01-24T13:13:21.580Z,20
2017-01-24T13:14:06.690Z,20
2017-01-24T13:15:06.695Z,20
2017-01-24T13:17:06.728Z,20
2017-01-24T13:18:06.740Z,15
2017-01-24T13:19:21.671Z,20
2017-01-24T13:20:21.687Z,20
2017-01-24T13:21:06.799Z,20
2017-01-24T13:22:06.804Z,20
2017-01-24T13:24:06.833Z,20
2017-01-24T13:25:06.845Z,20
2017-01-24T13:26:21.786Z,20
2017-01-24T13:27:06.875Z,20
2017-01-24T13:28:06.898Z,20
2017-01-24T13:29:06.905Z,20
2017-01-24T13:30:21.839Z,20
2017-01-24T13:31:06.937Z,20
2017-01-24T13:32:06.954Z,15
2017-01-24T13:33:21.888Z,15
2017-01-24T13:34:06.979Z,15
2017-01-24T13:35:07.000Z,20
2017-01-24T13:36:21.927Z,15
2017-01-24T13:37:21.943Z,15
2017-01-24T13:39:07.085Z,15
2017-01-24T13:40:07.071Z,15
2017-01-24T13:41:22.009Z,15
2017-01-24T13:43:07.123Z,15
2017-01-24T13:44:07.520Z,15
2017-01-24T13:46:07.169Z,10
2017-01-24T13:47:07.175Z,10
2017-01-24T13:48:22.113Z,10
2017-01-24T13:49:07.213Z,10
2017-01-24T13:50:07.224Z,10
2017-01-24T13:51:07.270Z,10
2017-01-24T13:52:37.088Z,10
2017-01-24T13:53:07.297Z,10
2017-01-24T13:54:07.289Z,10
2017-01-24T13:55:07.302Z,10
2017-01-24T13:56:07.321Z,10
2017-01-24T13:57:22.246Z,10
2017-01-24T13:58:07.347Z,10
2017-01-24T13:59:07.357Z,10
2017-01-24T14:00:07.379Z,10
2017-01-24T14:01:07.395Z,10
2017-01-24T14:02:22.324Z,10
2017-01-24T14:03:07.419Z,10
2017-01-24T14:04:22.350Z,10
2017-01-24T14:05:07.450Z,10
2017-01-24T14:06:22.474Z,10
2017-01-24T14:07:07.479Z,10
2017-01-24T14:09:07.515Z,10
2017-01-24T14:10:07.910Z,10
2017-01-24T14:11:07.536Z,5
2017-01-24T14:12:22.476Z,10
2017-01-24T14:13:22.481Z,10
2017-01-24T14:14:07.584Z,10
2017-01-24T14:15:07.596Z,10
2017-01-24T14:16:07.635Z,10
2017-01-24T14:17:07.630Z,10
2017-01-24T14:18:07.647Z,10
2017-01-24T14:19:07.660Z,10
2017-01-24T14:20:22.594Z,10
2017-01-24T14:21:22.607Z,10
2017-01-24T14:22:07.713Z,10
2017-01-24T14:23:22.660Z,10
2017-01-24T14:24:07.734Z,10
2017-01-24T14:25:07.756Z,10
2017-01-24T14:26:08.149Z,10
2017-01-24T14:27:07.777Z,10
2017-01-24T14:28:07.796Z,5
2017-01-24T14:29:22.726Z,5
2017-01-24T14:30:07.830Z,5
2017-01-24T14:31:07.839Z,5
2017-01-24T14:32:07.855Z,5
2017-01-24T14:33:22.835Z,5
2017-01-24T14:34:07.887Z,5
2017-01-24T14:35:22.821Z,5
2017-01-24T14:36:07.915Z,5
2017-01-24T14:37:07.928Z,5
2017-01-24T14:39:23.273Z,5
2017-01-24T14:40:07.994Z,5
2017-01-24T14:41:07.989Z,5
2017-01-24T14:42:22.920Z,0
2017-01-24T14:43:08.029Z,0
2017-01-24T14:44:22.948Z,0
2017-01-24T14:45:08.048Z,0
2017-01-24T14:46:08.066Z,0
2017-01-24T14:47:08.077Z,0
2017-01-24T14:48:08.099Z,0
2017-01-24T14:49:08.149Z,0
2017-01-24T14:50:08.128Z,0
2017-01-24T14:51:23.056Z,0
2017-01-24T14:52:08.188Z,0
2017-01-24T14:53:08.558Z,0
2017-01-24T14:54:08.227Z,0
2017-01-24T14:55:23.115Z,0
2017-01-24T14:56:23.131Z,0
2017-01-24T14:58:08.249Z,0
2017-01-24T14:59:08.265Z,0
2017-01-24T15:00:08.277Z,0
2017-01-24T15:01:08.291Z,0
2017-01-24T15:02:08.311Z,0
2017-01-24T15:03:08.326Z,0
2017-01-24T15:04:08.340Z,0
2017-01-24T15:05:08.398Z,0
2017-01-24T15:06:08.366Z,0
2017-01-24T15:07:08.387Z,0
2017-01-24T15:08:08.397Z,0
2017-01-24T15:09:08.413Z,0
2017-01-24T15:11:08.831Z,0
2017-01-24T15:12:08.463Z,0
2017-01-24T15:13:08.868Z,0
2017-01-24T15:15:08.508Z,0
2017-01-24T15:16:23.439Z,0
2017-01-24T15:17:08.733Z,0
2017-01-24T15:18:08.558Z,0
2017-01-24T15:19:23.482Z,0
2017-01-24T15:20:08.592Z,0
2017-01-24T15:21:08.590Z,0
2017-01-24T15:22:09.001Z,0
2017-01-24T15:23:08.622Z,0
2017-01-24T15:24:08.647Z,0
2017-01-24T15:25:08.652Z,0
2017-01-24T15:26:08.668Z,0
2017-01-24T15:27:08.686Z,0
2017-01-24T15:28:08.701Z,0
2017-01-24T15:29:08.714Z,0
2017-01-24T15:30:23.644Z,0
2017-01-24T15:31:08.743Z,0
2017-01-24T15:32:23.674Z,0
2017-01-24T15:33:08.777Z,0